sensor_id;sensor_type;location;lat;lon;timestamp;temperature;humidity
14409;DHT22;7289;50.706;4.992;2023-04-03T00:01:17;0.70;99.90
14409;DHT22;7289;50.706;4.992;2023-04-03T00:03:45;0.60;99.90
14409;DHT22;7289;50.706;4.992;2023-04-03T00:06:15;0.60;99.90
14409;DHT22;7289;50.706;4.992;2023-04-03T00:08:43;0.60;99.90
14409;DHT22;7289;50.706;4.992;2023-04-03T00:11:11;0.70;99.90
14409;DHT22;7289;50.706;4.992;2023-04-03T00:13:40;0.70;99.90
14409;DHT22;7289;50.706;4.992;2023-04-03T00:16:09;0.70;99.90
14409;DHT22;7289;50.706;4.992;2023-04-03T00:18:39;0.60;99.90
14409;DHT22;7289;50.706;4.992;2023-04-03T00:21:09;0.60;99.90
14409;DHT22;7289;50.706;4.992;2023-04-03T00:23:39;0.50;99.90
14409;DHT22;7289;50.706;4.992;2023-04-03T00:26:07;0.40;99.90
14409;DHT22;7289;50.706;4.992;2023-04-03T00:28:36;0.40;99.90
14409;DHT22;7289;50.706;4.992;2023-04-03T00:31:05;0.40;99.90
14409;DHT22;7289;50.706;4.992;2023-04-03T00:33:33;0.50;99.90
14409;DHT22;7289;50.706;4.992;2023-04-03T00:36:06;0.40;99.90
14409;DHT22;7289;50.706;4.992;2023-04-03T00:38:34;0.40;99.90
14409;DHT22;7289;50.706;4.992;2023-04-03T00:41:04;0.40;99.90
14409;DHT22;7289;50.706;4.992;2023-04-03T00:43:32;0.30;99.90
14409;DHT22;7289;50.706;4.992;2023-04-03T00:46:01;0.30;99.90
14409;DHT22;7289;50.706;4.992;2023-04-03T00:48:31;0.30;99.90
14409;DHT22;7289;50.706;4.992;2023-04-03T00:51:01;0.30;99.90
14409;DHT22;7289;50.706;4.992;2023-04-03T00:53:32;0.20;99.90
14409;DHT22;7289;50.706;4.992;2023-04-03T00:56:01;0.10;99.90
14409;DHT22;7289;50.706;4.992;2023-04-03T00:58:38;0.10;99.90
14409;DHT22;7289;50.706;4.992;2023-04-03T01:01:11;0.00;99.90
14409;DHT22;7289;50.706;4.992;2023-04-03T01:03:40;0.00;99.90
14409;DHT22;7289;50.706;4.992;2023-04-03T01:06:09;0.10;99.90
14409;DHT22;7289;50.706;4.992;2023-04-03T01:08:38;0.10;99.90
14409;DHT22;7289;50.706;4.992;2023-04-03T01:11:06;0.00;99.90
14409;DHT22;7289;50.706;4.992;2023-04-03T01:13:36;0.00;99.90
14409;DHT22;7289;50.706;4.992;2023-04-03T01:16:07;-0.10;99.90
14409;DHT22;7289;50.706;4.992;2023-04-03T01:18:37;-0.10;99.90
14409;DHT22;7289;50.706;4.992;2023-04-03T01:21:30;-0.10;99.90
14409;DHT22;7289;50.706;4.992;2023-04-03T01:24:15;-0.10;99.90
14409;DHT22;7289;50.706;4.992;2023-04-03T01:26:46;-0.10;99.90
14409;DHT22;7289;50.706;4.992;2023-04-03T01:29:17;-0.10;99.90
14409;DHT22;7289;50.706;4.992;2023-04-03T01:31:50;-0.10;99.90
14409;DHT22;7289;50.706;4.992;2023-04-03T01:34:19;-0.10;99.90
14409;DHT22;7289;50.706;4.992;2023-04-03T01:36:49;-0.20;99.90
14409;DHT22;7289;50.706;4.992;2023-04-03T01:39:17;-0.20;99.90
14409;DHT22;7289;50.706;4.992;2023-04-03T01:41:47;-0.30;99.90
14409;DHT22;7289;50.706;4.992;2023-04-03T01:44:25;-0.20;99.90
14409;DHT22;7289;50.706;4.992;2023-04-03T01:46:55;-0.10;99.90
14409;DHT22;7289;50.706;4.992;2023-04-03T01:49:25;-0.20;99.90
14409;DHT22;7289;50.706;4.992;2023-04-03T01:51:54;-0.10;99.90
14409;DHT22;7289;50.706;4.992;2023-04-03T01:54:22;-0.10;99.90
14409;DHT22;7289;50.706;4.992;2023-04-03T01:56:51;0.00;99.90
14409;DHT22;7289;50.706;4.992;2023-04-03T01:59:20;0.00;99.90
14409;DHT22;7289;50.706;4.992;2023-04-03T02:01:48;0.00;99.90
14409;DHT22;7289;50.706;4.992;2023-04-03T02:04:18;0.00;99.90
14409;DHT22;7289;50.706;4.992;2023-04-03T02:06:47;0.00;99.90
14409;DHT22;7289;50.706;4.992;2023-04-03T02:09:15;0.00;99.90
14409;DHT22;7289;50.706;4.992;2023-04-03T02:11:43;-0.10;99.90
14409;DHT22;7289;50.706;4.992;2023-04-03T02:14:13;-0.10;99.90
14409;DHT22;7289;50.706;4.992;2023-04-03T02:16:41;-0.10;99.90
14409;DHT22;7289;50.706;4.992;2023-04-03T02:19:09;-0.10;99.90
14409;DHT22;7289;50.706;4.992;2023-04-03T02:21:39;-0.10;99.90
14409;DHT22;7289;50.706;4.992;2023-04-03T02:24:07;-0.10;99.90
14409;DHT22;7289;50.706;4.992;2023-04-03T02:26:36;-0.10;99.90
14409;DHT22;7289;50.706;4.992;2023-04-03T02:29:04;-0.10;99.90
14409;DHT22;7289;50.706;4.992;2023-04-03T02:31:34;-0.20;99.90
14409;DHT22;7289;50.706;4.992;2023-04-03T02:34:04;-0.20;99.90
14409;DHT22;7289;50.706;4.992;2023-04-03T02:36:34;-0.20;99.90
14409;DHT22;7289;50.706;4.992;2023-04-03T02:39:08;-0.20;99.90
14409;DHT22;7289;50.706;4.992;2023-04-03T02:41:36;-0.30;99.90
14409;DHT22;7289;50.706;4.992;2023-04-03T02:44:11;-0.20;99.90
14409;DHT22;7289;50.706;4.992;2023-04-03T02:46:39;-0.30;99.90
14409;DHT22;7289;50.706;4.992;2023-04-03T02:49:07;-0.30;99.90
14409;DHT22;7289;50.706;4.992;2023-04-03T02:51:36;-0.40;99.90
14409;DHT22;7289;50.706;4.992;2023-04-03T02:54:04;-0.40;99.90
14409;DHT22;7289;50.706;4.992;2023-04-03T02:56:37;-0.30;99.90
14409;DHT22;7289;50.706;4.992;2023-04-03T02:59:05;-0.40;99.90
14409;DHT22;7289;50.706;4.992;2023-04-03T03:01:36;-0.30;99.90
14409;DHT22;7289;50.706;4.992;2023-04-03T03:04:05;-0.30;99.90
14409;DHT22;7289;50.706;4.992;2023-04-03T03:06:33;-0.30;99.90
14409;DHT22;7289;50.706;4.992;2023-04-03T03:09:01;-0.40;99.90
14409;DHT22;7289;50.706;4.992;2023-04-03T03:11:30;-0.40;99.90
14409;DHT22;7289;50.706;4.992;2023-04-03T03:14:00;-0.50;99.90
14409;DHT22;7289;50.706;4.992;2023-04-03T03:16:28;-0.50;99.90
14409;DHT22;7289;50.706;4.992;2023-04-03T03:18:56;-0.60;99.90
14409;DHT22;7289;50.706;4.992;2023-04-03T03:21:25;-0.50;99.90
14409;DHT22;7289;50.706;4.992;2023-04-03T03:23:53;-0.60;99.90
14409;DHT22;7289;50.706;4.992;2023-04-03T03:26:22;-0.60;99.90
14409;DHT22;7289;50.706;4.992;2023-04-03T03:28:50;-0.60;99.90
14409;DHT22;7289;50.706;4.992;2023-04-03T03:31:20;-0.70;99.90
14409;DHT22;7289;50.706;4.992;2023-04-03T03:33:48;-0.70;99.90
14409;DHT22;7289;50.706;4.992;2023-04-03T03:36:17;-0.60;99.90
14409;DHT22;7289;50.706;4.992;2023-04-03T03:38:45;-0.60;99.90
14409;DHT22;7289;50.706;4.992;2023-04-03T03:41:13;-0.60;99.90
14409;DHT22;7289;50.706;4.992;2023-04-03T03:43:44;-0.60;99.90
14409;DHT22;7289;50.706;4.992;2023-04-03T03:46:14;-0.60;99.90
14409;DHT22;7289;50.706;4.992;2023-04-03T03:48:43;-0.70;99.90
14409;DHT22;7289;50.706;4.992;2023-04-03T03:51:12;-0.70;99.90
14409;DHT22;7289;50.706;4.992;2023-04-03T03:53:40;-0.70;99.90
14409;DHT22;7289;50.706;4.992;2023-04-03T03:56:13;-0.70;99.90
14409;DHT22;7289;50.706;4.992;2023-04-03T03:58:42;-0.80;99.90
14409;DHT22;7289;50.706;4.992;2023-04-03T04:01:10;-0.80;99.90
14409;DHT22;7289;50.706;4.992;2023-04-03T04:03:44;-0.70;99.90
14409;DHT22;7289;50.706;4.992;2023-04-03T04:06:17;-0.80;99.90
14409;DHT22;7289;50.706;4.992;2023-04-03T04:08:45;-0.80;99.90
14409;DHT22;7289;50.706;4.992;2023-04-03T04:11:14;-0.80;99.90
14409;DHT22;7289;50.706;4.992;2023-04-03T04:13:44;-0.80;99.90
14409;DHT22;7289;50.706;4.992;2023-04-03T04:16:14;-0.90;99.90
14409;DHT22;7289;50.706;4.992;2023-04-03T04:18:44;-0.90;99.90
14409;DHT22;7289;50.706;4.992;2023-04-03T04:21:12;-1.00;99.90
14409;DHT22;7289;50.706;4.992;2023-04-03T04:23:41;-1.00;99.90
14409;DHT22;7289;50.706;4.992;2023-04-03T04:26:10;-1.00;99.90
14409;DHT22;7289;50.706;4.992;2023-04-03T04:28:39;-1.00;99.90
14409;DHT22;7289;50.706;4.992;2023-04-03T04:31:07;-0.90;99.90
14409;DHT22;7289;50.706;4.992;2023-04-03T04:33:36;-1.00;99.90
14409;DHT22;7289;50.706;4.992;2023-04-03T04:36:08;-1.00;99.90
14409;DHT22;7289;50.706;4.992;2023-04-03T04:38:37;-0.90;99.90
14409;DHT22;7289;50.706;4.992;2023-04-03T04:41:06;-0.90;99.90
14409;DHT22;7289;50.706;4.992;2023-04-03T04:43:35;-1.00;99.90
14409;DHT22;7289;50.706;4.992;2023-04-03T04:46:06;-1.00;99.90
14409;DHT22;7289;50.706;4.992;2023-04-03T04:48:40;-1.00;99.90
14409;DHT22;7289;50.706;4.992;2023-04-03T04:51:11;-1.00;99.90
14409;DHT22;7289;50.706;4.992;2023-04-03T04:53:41;-1.00;99.90
14409;DHT22;7289;50.706;4.992;2023-04-03T04:56:12;-1.00;99.90
14409;DHT22;7289;50.706;4.992;2023-04-03T04:58:41;-1.00;99.90
14409;DHT22;7289;50.706;4.992;2023-04-03T05:01:10;-1.00;99.90
14409;DHT22;7289;50.706;4.992;2023-04-03T05:03:48;-0.90;99.90
14409;DHT22;7289;50.706;4.992;2023-04-03T05:06:19;-0.90;99.90
14409;DHT22;7289;50.706;4.992;2023-04-03T05:08:48;-1.00;99.90
14409;DHT22;7289;50.706;4.992;2023-04-03T05:11:17;-1.00;99.90
14409;DHT22;7289;50.706;4.992;2023-04-03T05:13:49;-1.00;99.90
14409;DHT22;7289;50.706;4.992;2023-04-03T05:16:18;-1.00;99.90
14409;DHT22;7289;50.706;4.992;2023-04-03T05:18:46;-1.00;99.90
14409;DHT22;7289;50.706;4.992;2023-04-03T05:21:20;-1.00;99.90
14409;DHT22;7289;50.706;4.992;2023-04-03T05:23:51;-1.00;99.90
14409;DHT22;7289;50.706;4.992;2023-04-03T05:26:20;-0.90;99.90
14409;DHT22;7289;50.706;4.992;2023-04-03T05:28:50;-1.00;99.90
14409;DHT22;7289;50.706;4.992;2023-04-03T05:31:19;-0.90;99.90
14409;DHT22;7289;50.706;4.992;2023-04-03T05:33:48;-0.90;99.90
14409;DHT22;7289;50.706;4.992;2023-04-03T05:36:17;-0.90;99.90
14409;DHT22;7289;50.706;4.992;2023-04-03T05:38:51;-0.90;99.90
14409;DHT22;7289;50.706;4.992;2023-04-03T05:41:20;-0.90;99.90
14409;DHT22;7289;50.706;4.992;2023-04-03T05:43:49;-0.90;99.90
14409;DHT22;7289;50.706;4.992;2023-04-03T05:46:20;-0.80;99.90
14409;DHT22;7289;50.706;4.992;2023-04-03T05:48:54;-0.80;99.90
14409;DHT22;7289;50.706;4.992;2023-04-03T05:51:29;-0.70;99.90
14409;DHT22;7289;50.706;4.992;2023-04-03T05:54:12;-0.70;99.90
14409;DHT22;7289;50.706;4.992;2023-04-03T05:56:41;-0.50;99.90
14409;DHT22;7289;50.706;4.992;2023-04-03T05:59:09;-0.40;99.90
14409;DHT22;7289;50.706;4.992;2023-04-03T06:01:38;-0.40;99.90
14409;DHT22;7289;50.706;4.992;2023-04-03T06:04:06;-0.30;99.90
14409;DHT22;7289;50.706;4.992;2023-04-03T06:06:47;-0.20;99.90
14409;DHT22;7289;50.706;4.992;2023-04-03T06:09:19;-0.10;99.90
14409;DHT22;7289;50.706;4.992;2023-04-03T06:11:48;-0.10;99.90
14409;DHT22;7289;50.706;4.992;2023-04-03T06:14:17;0.00;99.90
14409;DHT22;7289;50.706;4.992;2023-04-03T06:16:45;0.00;99.90
14409;DHT22;7289;50.706;4.992;2023-04-03T06:19:14;0.10;99.90
14409;DHT22;7289;50.706;4.992;2023-04-03T06:21:47;0.10;99.90
14409;DHT22;7289;50.706;4.992;2023-04-03T06:24:18;0.20;99.90
14409;DHT22;7289;50.706;4.992;2023-04-03T06:26:46;0.30;99.90
14409;DHT22;7289;50.706;4.992;2023-04-03T06:29:15;0.40;99.90
14409;DHT22;7289;50.706;4.992;2023-04-03T06:31:44;0.50;99.90
14409;DHT22;7289;50.706;4.992;2023-04-03T06:34:12;0.60;99.90
14409;DHT22;7289;50.706;4.992;2023-04-03T06:36:41;0.80;99.90
14409;DHT22;7289;50.706;4.992;2023-04-03T06:39:13;0.80;99.90
14409;DHT22;7289;50.706;4.992;2023-04-03T06:41:44;0.90;99.90
14409;DHT22;7289;50.706;4.992;2023-04-03T06:44:12;1.10;99.90
14409;DHT22;7289;50.706;4.992;2023-04-03T06:46:43;1.20;99.90
14409;DHT22;7289;50.706;4.992;2023-04-03T06:49:13;1.30;99.90
14409;DHT22;7289;50.706;4.992;2023-04-03T06:51:42;1.40;99.90
14409;DHT22;7289;50.706;4.992;2023-04-03T06:54:10;1.70;99.90
14409;DHT22;7289;50.706;4.992;2023-04-03T06:56:38;2.20;99.90
14409;DHT22;7289;50.706;4.992;2023-04-03T06:59:09;2.20;99.90
14409;DHT22;7289;50.706;4.992;2023-04-03T07:01:38;2.20;99.90
14409;DHT22;7289;50.706;4.992;2023-04-03T07:04:07;2.10;99.90
14409;DHT22;7289;50.706;4.992;2023-04-03T07:06:36;1.80;99.90
14409;DHT22;7289;50.706;4.992;2023-04-03T07:09:04;2.00;99.90
14409;DHT22;7289;50.706;4.992;2023-04-03T07:11:33;1.80;99.90
14409;DHT22;7289;50.706;4.992;2023-04-03T07:14:02;1.90;99.90
14409;DHT22;7289;50.706;4.992;2023-04-03T07:16:31;2.10;99.90
14409;DHT22;7289;50.706;4.992;2023-04-03T07:19:00;2.40;99.90
14409;DHT22;7289;50.706;4.992;2023-04-03T07:21:28;2.60;99.90
14409;DHT22;7289;50.706;4.992;2023-04-03T07:23:57;2.60;99.90
14409;DHT22;7289;50.706;4.992;2023-04-03T07:26:26;2.60;99.90
14409;DHT22;7289;50.706;4.992;2023-04-03T07:28:54;2.50;99.90
14409;DHT22;7289;50.706;4.992;2023-04-03T07:31:23;2.60;99.90
14409;DHT22;7289;50.706;4.992;2023-04-03T07:33:53;2.70;99.90
14409;DHT22;7289;50.706;4.992;2023-04-03T07:36:22;2.80;99.90
14409;DHT22;7289;50.706;4.992;2023-04-03T07:38:51;2.90;99.90
14409;DHT22;7289;50.706;4.992;2023-04-03T07:41:19;3.00;99.90
14409;DHT22;7289;50.706;4.992;2023-04-03T07:43:49;3.00;99.90
14409;DHT22;7289;50.706;4.992;2023-04-03T07:46:19;3.10;99.90
14409;DHT22;7289;50.706;4.992;2023-04-03T07:48:47;3.10;99.90
14409;DHT22;7289;50.706;4.992;2023-04-03T07:51:17;3.20;99.90
14409;DHT22;7289;50.706;4.992;2023-04-03T07:53:46;3.20;99.90
14409;DHT22;7289;50.706;4.992;2023-04-03T07:56:16;3.20;99.90
14409;DHT22;7289;50.706;4.992;2023-04-03T07:58:45;3.40;99.90
14409;DHT22;7289;50.706;4.992;2023-04-03T08:01:13;3.50;99.90
14409;DHT22;7289;50.706;4.992;2023-04-03T08:03:41;3.50;99.90
14409;DHT22;7289;50.706;4.992;2023-04-03T08:06:10;3.60;99.90
14409;DHT22;7289;50.706;4.992;2023-04-03T08:08:44;3.70;99.90
14409;DHT22;7289;50.706;4.992;2023-04-03T08:11:14;3.90;99.90
14409;DHT22;7289;50.706;4.992;2023-04-03T08:13:42;4.00;99.90
14409;DHT22;7289;50.706;4.992;2023-04-03T08:16:13;4.10;99.90
14409;DHT22;7289;50.706;4.992;2023-04-03T08:18:41;4.10;99.90
14409;DHT22;7289;50.706;4.992;2023-04-03T08:21:11;4.30;99.90
14409;DHT22;7289;50.706;4.992;2023-04-03T08:23:40;4.30;99.90
14409;DHT22;7289;50.706;4.992;2023-04-03T08:26:12;4.40;99.90
14409;DHT22;7289;50.706;4.992;2023-04-03T08:28:41;4.60;99.90
14409;DHT22;7289;50.706;4.992;2023-04-03T08:31:11;4.80;99.90
14409;DHT22;7289;50.706;4.992;2023-04-03T08:33:40;4.90;99.90
14409;DHT22;7289;50.706;4.992;2023-04-03T08:36:18;5.10;99.90
14409;DHT22;7289;50.706;4.992;2023-04-03T08:38:47;5.30;99.90
14409;DHT22;7289;50.706;4.992;2023-04-03T08:41:22;5.30;99.90
14409;DHT22;7289;50.706;4.992;2023-04-03T08:44:02;5.60;99.90
14409;DHT22;7289;50.706;4.992;2023-04-03T08:46:43;5.80;99.90
14409;DHT22;7289;50.706;4.992;2023-04-03T08:49:21;6.10;99.90
14409;DHT22;7289;50.706;4.992;2023-04-03T08:51:51;6.40;99.90
14409;DHT22;7289;50.706;4.992;2023-04-03T08:54:25;6.50;99.90
14409;DHT22;7289;50.706;4.992;2023-04-03T08:56:58;6.40;99.90
14409;DHT22;7289;50.706;4.992;2023-04-03T08:59:29;6.60;99.90
14409;DHT22;7289;50.706;4.992;2023-04-03T09:02:01;6.80;99.90
14409;DHT22;7289;50.706;4.992;2023-04-03T09:04:33;6.60;99.90
14409;DHT22;7289;50.706;4.992;2023-04-03T09:07:06;6.70;99.90
14409;DHT22;7289;50.706;4.992;2023-04-03T09:09:40;6.80;99.90
14409;DHT22;7289;50.706;4.992;2023-04-03T09:12:18;6.90;99.90
14409;DHT22;7289;50.706;4.992;2023-04-03T09:14:57;6.70;99.90
14409;DHT22;7289;50.706;4.992;2023-04-03T09:17:39;6.50;99.90
14409;DHT22;7289;50.706;4.992;2023-04-03T09:20:20;6.60;99.90
14409;DHT22;7289;50.706;4.992;2023-04-03T09:22:51;6.90;99.90
14409;DHT22;7289;50.706;4.992;2023-04-03T09:25:22;7.00;99.90
14409;DHT22;7289;50.706;4.992;2023-04-03T09:27:52;7.00;99.90
14409;DHT22;7289;50.706;4.992;2023-04-03T09:30:23;7.00;99.90
14409;DHT22;7289;50.706;4.992;2023-04-03T09:32:54;7.10;99.90
14409;DHT22;7289;50.706;4.992;2023-04-03T09:35:25;7.30;99.90
14409;DHT22;7289;50.706;4.992;2023-04-03T09:38:18;7.20;99.90
14409;DHT22;7289;50.706;4.992;2023-04-03T09:40:49;7.00;99.90
14409;DHT22;7289;50.706;4.992;2023-04-03T09:43:29;7.10;99.90
14409;DHT22;7289;50.706;4.992;2023-04-03T09:46:16;7.20;99.90
14409;DHT22;7289;50.706;4.992;2023-04-03T09:48:51;7.20;99.90
14409;DHT22;7289;50.706;4.992;2023-04-03T09:51:34;7.30;99.90
14409;DHT22;7289;50.706;4.992;2023-04-03T09:54:24;7.30;99.90
14409;DHT22;7289;50.706;4.992;2023-04-03T09:56:54;7.30;99.90
14409;DHT22;7289;50.706;4.992;2023-04-03T09:59:25;7.50;99.90
14409;DHT22;7289;50.706;4.992;2023-04-03T10:01:58;7.50;99.90
14409;DHT22;7289;50.706;4.992;2023-04-03T10:04:37;7.80;99.90
14409;DHT22;7289;50.706;4.992;2023-04-03T10:07:28;7.90;99.90
14409;DHT22;7289;50.706;4.992;2023-04-03T10:09:57;8.00;99.90
14409;DHT22;7289;50.706;4.992;2023-04-03T10:12:27;7.80;99.80
14409;DHT22;7289;50.706;4.992;2023-04-03T10:14:57;7.70;99.90
14409;DHT22;7289;50.706;4.992;2023-04-03T10:17:38;7.80;99.90
14409;DHT22;7289;50.706;4.992;2023-04-03T10:20:26;7.90;99.90
14409;DHT22;7289;50.706;4.992;2023-04-03T10:23:06;8.10;99.90
14409;DHT22;7289;50.706;4.992;2023-04-03T10:25:43;8.20;99.90
14409;DHT22;7289;50.706;4.992;2023-04-03T10:28:21;8.10;99.90
14409;DHT22;7289;50.706;4.992;2023-04-03T10:30:58;8.10;99.80
14409;DHT22;7289;50.706;4.992;2023-04-03T10:33:39;8.10;98.90
14409;DHT22;7289;50.706;4.992;2023-04-03T10:36:19;8.10;98.30
14409;DHT22;7289;50.706;4.992;2023-04-03T10:38:56;8.10;99.90
14409;DHT22;7289;50.706;4.992;2023-04-03T10:41:37;8.40;99.90
14409;DHT22;7289;50.706;4.992;2023-04-03T10:44:14;8.50;98.20
14409;DHT22;7289;50.706;4.992;2023-04-03T10:46:48;8.60;98.60
14409;DHT22;7289;50.706;4.992;2023-04-03T10:49:26;8.70;98.00
14409;DHT22;7289;50.706;4.992;2023-04-03T10:52:02;8.50;96.20
14409;DHT22;7289;50.706;4.992;2023-04-03T10:54:38;8.30;97.60
14409;DHT22;7289;50.706;4.992;2023-04-03T10:57:09;8.30;95.90
14409;DHT22;7289;50.706;4.992;2023-04-03T10:59:43;8.40;96.10
14409;DHT22;7289;50.706;4.992;2023-04-03T11:02:19;8.20;95.40
14409;DHT22;7289;50.706;4.992;2023-04-03T11:04:55;8.40;94.30
14409;DHT22;7289;50.706;4.992;2023-04-03T11:07:27;8.50;94.40
14409;DHT22;7289;50.706;4.992;2023-04-03T11:10:03;8.50;94.50
14409;DHT22;7289;50.706;4.992;2023-04-03T11:12:38;8.60;92.60
14409;DHT22;7289;50.706;4.992;2023-04-03T11:15:13;8.60;92.50
14409;DHT22;7289;50.706;4.992;2023-04-03T11:17:48;8.60;92.50
14409;DHT22;7289;50.706;4.992;2023-04-03T11:20:22;8.50;91.30
14409;DHT22;7289;50.706;4.992;2023-04-03T11:23:00;8.70;92.80
14409;DHT22;7289;50.706;4.992;2023-04-03T11:25:32;8.60;92.30
14409;DHT22;7289;50.706;4.992;2023-04-03T11:28:06;8.80;92.00
14409;DHT22;7289;50.706;4.992;2023-04-03T11:30:46;9.00;91.40
14409;DHT22;7289;50.706;4.992;2023-04-03T11:33:28;9.00;92.30
14409;DHT22;7289;50.706;4.992;2023-04-03T11:36:04;9.00;91.40
14409;DHT22;7289;50.706;4.992;2023-04-03T11:38:53;9.10;90.70
14409;DHT22;7289;50.706;4.992;2023-04-03T11:41:28;9.20;92.00
14409;DHT22;7289;50.706;4.992;2023-04-03T11:43:59;9.00;88.70
14409;DHT22;7289;50.706;4.992;2023-04-03T11:46:50;9.20;92.10
14409;DHT22;7289;50.706;4.992;2023-04-03T11:49:53;9.40;90.80
14409;DHT22;7289;50.706;4.992;2023-04-03T11:53:00;9.50;92.30
14409;DHT22;7289;50.706;4.992;2023-04-03T11:55:52;9.30;89.90
14409;DHT22;7289;50.706;4.992;2023-04-03T11:58:23;9.20;90.10
14409;DHT22;7289;50.706;4.992;2023-04-03T12:01:04;9.20;88.20
14409;DHT22;7289;50.706;4.992;2023-04-03T12:04:07;9.00;87.60
14409;DHT22;7289;50.706;4.992;2023-04-03T12:13:01;9.00;89.20
14409;DHT22;7289;50.706;4.992;2023-04-03T12:15:52;9.10;88.60
14409;DHT22;7289;50.706;4.992;2023-04-03T12:18:53;9.20;91.30
14409;DHT22;7289;50.706;4.992;2023-04-03T12:24:33;9.40;84.50
14409;DHT22;7289;50.706;4.992;2023-04-03T12:27:05;9.40;90.60
14409;DHT22;7289;50.706;4.992;2023-04-03T12:29:35;9.30;90.30
14409;DHT22;7289;50.706;4.992;2023-04-03T12:32:18;9.00;89.60
14409;DHT22;7289;50.706;4.992;2023-04-03T12:35:09;9.10;87.60
14409;DHT22;7289;50.706;4.992;2023-04-03T12:37:48;9.30;90.20
14409;DHT22;7289;50.706;4.992;2023-04-03T12:40:25;9.00;87.40
14409;DHT22;7289;50.706;4.992;2023-04-03T12:43:22;9.20;90.20
14409;DHT22;7289;50.706;4.992;2023-04-03T12:45:59;9.20;89.70
14409;DHT22;7289;50.706;4.992;2023-04-03T12:48:32;9.50;91.10
14409;DHT22;7289;50.706;4.992;2023-04-03T12:51:02;9.80;90.70
14409;DHT22;7289;50.706;4.992;2023-04-03T12:53:33;9.80;87.50
14409;DHT22;7289;50.706;4.992;2023-04-03T12:56:22;9.80;90.80
14409;DHT22;7289;50.706;4.992;2023-04-03T12:58:52;10.00;91.40
14409;DHT22;7289;50.706;4.992;2023-04-03T13:01:22;10.10;90.90
14409;DHT22;7289;50.706;4.992;2023-04-03T13:03:54;10.10;87.60
14409;DHT22;7289;50.706;4.992;2023-04-03T13:06:26;10.20;90.50
14409;DHT22;7289;50.706;4.992;2023-04-03T13:08:57;10.30;91.00
14409;DHT22;7289;50.706;4.992;2023-04-03T13:11:33;10.50;86.90
14409;DHT22;7289;50.706;4.992;2023-04-03T13:14:12;10.30;86.50
14409;DHT22;7289;50.706;4.992;2023-04-03T13:16:42;10.20;87.10
14409;DHT22;7289;50.706;4.992;2023-04-03T13:19:20;10.20;88.20
14409;DHT22;7289;50.706;4.992;2023-04-03T13:21:52;9.90;86.40
14409;DHT22;7289;50.706;4.992;2023-04-03T13:24:23;10.00;89.10
14409;DHT22;7289;50.706;4.992;2023-04-03T13:26:53;10.10;89.90
14409;DHT22;7289;50.706;4.992;2023-04-03T13:29:24;10.40;88.60
14409;DHT22;7289;50.706;4.992;2023-04-03T13:31:59;10.50;88.20
14409;DHT22;7289;50.706;4.992;2023-04-03T13:34:29;10.60;84.50
14409;DHT22;7289;50.706;4.992;2023-04-03T13:36:59;10.40;87.50
14409;DHT22;7289;50.706;4.992;2023-04-03T13:39:31;10.30;86.60
14409;DHT22;7289;50.706;4.992;2023-04-03T13:42:14;10.30;86.60
14409;DHT22;7289;50.706;4.992;2023-04-03T13:44:43;10.40;89.00
14409;DHT22;7289;50.706;4.992;2023-04-03T13:47:17;10.50;87.70
14409;DHT22;7289;50.706;4.992;2023-04-03T13:49:59;10.40;86.30
14409;DHT22;7289;50.706;4.992;2023-04-03T13:52:31;10.20;84.80
14409;DHT22;7289;50.706;4.992;2023-04-03T13:55:15;10.50;83.70
14409;DHT22;7289;50.706;4.992;2023-04-03T13:57:55;10.30;89.10
14409;DHT22;7289;50.706;4.992;2023-04-03T14:00:31;10.40;86.40
14409;DHT22;7289;50.706;4.992;2023-04-03T14:03:00;10.40;85.10
14409;DHT22;7289;50.706;4.992;2023-04-03T14:05:29;10.30;85.30
14409;DHT22;7289;50.706;4.992;2023-04-03T14:07:58;10.50;89.30
14409;DHT22;7289;50.706;4.992;2023-04-03T14:10:26;10.70;84.00
14409;DHT22;7289;50.706;4.992;2023-04-03T14:12:56;10.60;85.50
14409;DHT22;7289;50.706;4.992;2023-04-03T14:15:27;10.40;81.30
14409;DHT22;7289;50.706;4.992;2023-04-03T14:17:56;10.50;82.80
14409;DHT22;7289;50.706;4.992;2023-04-03T14:20:28;10.10;82.60
14409;DHT22;7289;50.706;4.992;2023-04-03T14:22:57;10.20;86.70
14409;DHT22;7289;50.706;4.992;2023-04-03T14:25:25;10.30;83.90
14409;DHT22;7289;50.706;4.992;2023-04-03T14:27:53;10.20;87.10
14409;DHT22;7289;50.706;4.992;2023-04-03T14:30:25;10.40;90.60
14409;DHT22;7289;50.706;4.992;2023-04-03T14:32:54;10.60;87.30
14409;DHT22;7289;50.706;4.992;2023-04-03T14:35:24;10.50;85.30
14409;DHT22;7289;50.706;4.992;2023-04-03T14:37:55;10.50;85.10
14409;DHT22;7289;50.706;4.992;2023-04-03T14:40:25;10.50;87.10
14409;DHT22;7289;50.706;4.992;2023-04-03T14:42:54;10.50;85.60
14409;DHT22;7289;50.706;4.992;2023-04-03T14:45:25;10.40;85.90
14409;DHT22;7289;50.706;4.992;2023-04-03T14:47:55;10.30;84.50
14409;DHT22;7289;50.706;4.992;2023-04-03T14:50:26;10.20;84.80
14409;DHT22;7289;50.706;4.992;2023-04-03T14:52:57;10.20;89.80
14409;DHT22;7289;50.706;4.992;2023-04-03T14:55:26;10.30;87.30
14409;DHT22;7289;50.706;4.992;2023-04-03T14:57:55;10.20;86.50
14409;DHT22;7289;50.706;4.992;2023-04-03T15:00:24;10.20;87.50
14409;DHT22;7289;50.706;4.992;2023-04-03T15:02:53;10.20;83.50
14409;DHT22;7289;50.706;4.992;2023-04-03T15:05:21;10.10;85.70
14409;DHT22;7289;50.706;4.992;2023-04-03T15:07:52;10.10;89.10
14409;DHT22;7289;50.706;4.992;2023-04-03T15:10:23;10.40;89.20
14409;DHT22;7289;50.706;4.992;2023-04-03T15:12:53;10.30;85.20
14409;DHT22;7289;50.706;4.992;2023-04-03T15:15:23;10.00;82.80
14409;DHT22;7289;50.706;4.992;2023-04-03T15:17:54;9.90;86.80
14409;DHT22;7289;50.706;4.992;2023-04-03T15:20:26;9.80;85.20
14409;DHT22;7289;50.706;4.992;2023-04-03T15:22:57;9.90;87.30
14409;DHT22;7289;50.706;4.992;2023-04-03T15:25:28;9.80;86.10
14409;DHT22;7289;50.706;4.992;2023-04-03T15:27:57;9.90;86.90
14409;DHT22;7289;50.706;4.992;2023-04-03T15:30:25;10.00;84.30
14409;DHT22;7289;50.706;4.992;2023-04-03T15:32:55;9.80;84.20
14409;DHT22;7289;50.706;4.992;2023-04-03T15:35:23;9.70;85.00
14409;DHT22;7289;50.706;4.992;2023-04-03T15:37:52;9.70;87.10
14409;DHT22;7289;50.706;4.992;2023-04-03T15:40:20;9.70;87.00
14409;DHT22;7289;50.706;4.992;2023-04-03T15:42:48;9.90;84.70
14409;DHT22;7289;50.706;4.992;2023-04-03T15:45:19;9.90;87.40
14409;DHT22;7289;50.706;4.992;2023-04-03T15:47:48;10.00;84.30
14409;DHT22;7289;50.706;4.992;2023-04-03T15:50:18;9.90;85.10
14409;DHT22;7289;50.706;4.992;2023-04-03T15:52:49;9.80;83.90
14409;DHT22;7289;50.706;4.992;2023-04-03T15:55:21;9.90;86.50
14409;DHT22;7289;50.706;4.992;2023-04-03T15:57:49;9.90;85.50
14409;DHT22;7289;50.706;4.992;2023-04-03T16:00:18;9.80;85.90
14409;DHT22;7289;50.706;4.992;2023-04-03T16:02:47;9.70;88.90
14409;DHT22;7289;50.706;4.992;2023-04-03T16:05:18;9.70;87.60
14409;DHT22;7289;50.706;4.992;2023-04-03T16:07:47;9.70;85.50
14409;DHT22;7289;50.706;4.992;2023-04-03T16:10:17;9.60;85.60
14409;DHT22;7289;50.706;4.992;2023-04-03T16:12:45;9.70;87.50
14409;DHT22;7289;50.706;4.992;2023-04-03T16:15:14;9.60;84.30
14409;DHT22;7289;50.706;4.992;2023-04-03T16:17:42;9.50;83.90
14409;DHT22;7289;50.706;4.992;2023-04-03T16:20:11;9.40;82.50
14409;DHT22;7289;50.706;4.992;2023-04-03T16:22:42;9.30;83.30
14409;DHT22;7289;50.706;4.992;2023-04-03T16:25:11;9.20;83.70
14409;DHT22;7289;50.706;4.992;2023-04-03T16:27:39;9.20;85.30
14409;DHT22;7289;50.706;4.992;2023-04-03T16:30:09;9.30;88.40
14409;DHT22;7289;50.706;4.992;2023-04-03T16:32:38;9.20;83.20
14409;DHT22;7289;50.706;4.992;2023-04-03T16:35:07;9.10;85.70